Time;durP1;ratioP1;P1;durP2;ratioP2;P2;SDS_P1;SDS_P2;PMS_P1;PMS_P2;Temp;Humidity;BMP_temperature;BMP_pressure;BME280_temperature;BME280_humidity;BME280_pressure;Samples;Min_cycle;Max_cycle;Signal;HPM_P1;HPM_P2
2022/09/03 00:01:26;;;;;;;1.73;1.00;;;17.70;86.20;;;;;;7351706;32;20369;-58
2022/09/03 00:05:34;;;;;;;;;;;17.70;85.60;;;;;;7349444;32;20217;-58
2022/09/03 00:09:44;;;;;;;2.30;0.70;;;17.70;86.30;;;;;;7349990;32;20074;-58
2022/09/03 00:14:06;;;;;;;2.35;1.00;;;17.70;86.00;;;;;;7354495;32;20118;-58
2022/09/03 00:18:15;;;;;;;3.50;0.73;;;17.70;86.00;;;;;;7353252;32;20103;-58
2022/09/03 00:22:23;;;;;;;3.70;0.88;;;17.70;86.70;;;;;;7358555;32;20171;-58
2022/09/03 00:26:32;;;;;;;1.50;0.73;;;17.60;86.60;;;;;;7355035;32;20156;-59
2022/09/03 00:30:34;;;;;;;1.20;0.80;;;17.60;89.30;;;;;;7353992;32;20103;-58
2022/09/03 00:34:40;;;;;;;3.22;0.80;;;17.60;87.50;;;;;;7359841;32;20117;-60
2022/09/03 00:38:42;;;;;;;3.57;1.03;;;17.60;90.30;;;;;;7347369;32;20103;-60
2022/09/03 00:42:54;;;;;;;2.55;0.90;;;17.60;87.60;;;;;;7355041;32;20244;-59
2022/09/03 00:47:37;;;;;;;2.50;0.88;;;17.70;89.00;;;;;;7353355;32;20237;-59
2022/09/03 00:51:55;;;;;;;3.10;0.85;;;17.70;88.60;;;;;;7360132;32;20106;-59
2022/09/03 00:56:03;;;;;;;6.22;0.80;;;17.70;87.40;;;;;;7357814;32;20125;-59
2022/09/03 01:00:12;;;;;;;3.17;0.77;;;17.70;89.00;;;;;;7359589;32;20217;-59
2022/09/03 01:05:11;;;;;;;2.28;0.60;;;17.70;88.20;;;;;;7353267;32;20186;-59
2022/09/03 01:09:28;;;;;;;3.10;0.88;;;17.70;87.60;;;;;;7274717;32;20277;-58
2022/09/03 01:13:42;;;;;;;2.53;0.67;;;17.60;89.60;;;;;;7322826;32;20238;-59
2022/09/03 01:17:59;;;;;;;1.30;0.60;;;17.60;89.40;;;;;;7358124;32;20119;-59
2022/09/03 01:22:05;;;;;;;1.27;0.60;;;17.50;88.50;;;;;;7353067;32;20198;-58
2022/09/03 01:26:44;;;;;;;2.85;0.80;;;17.50;88.10;;;;;;7355626;32;20325;-59
2022/09/03 01:31:13;;;;;;;3.50;0.70;;;17.50;88.70;;;;;;7353515;32;20216;-59
2022/09/03 01:35:30;;;;;;;1.73;0.60;;;17.50;90.10;;;;;;7355332;32;20166;-59
2022/09/03 01:39:54;;;;;;;1.80;0.55;;;17.50;89.50;;;;;;7351782;32;20569;-60
2022/09/03 01:44:17;;;;;;;3.92;0.70;;;17.50;88.70;;;;;;7351303;32;20118;-59
2022/09/03 01:48:45;;;;;;;3.83;0.95;;;17.50;89.60;;;;;;7350395;32;20685;-58
2022/09/03 01:53:05;;;;;;;2.17;0.70;;;17.40;89.90;;;;;;7345737;32;20917;-59
2022/09/03 01:57:37;;;;;;;2.00;0.80;;;17.40;90.00;;;;;;7358057;32;20213;-59
2022/09/03 02:01:53;;;;;;;5.37;0.75;;;17.30;91.20;;;;;;7358615;32;20249;-59
2022/09/03 02:05:54;;;;;;;1.83;0.65;;;17.30;90.40;;;;;;7350831;32;20181;-59
2022/09/03 02:09:56;;;;;;;2.28;0.62;;;17.30;90.40;;;;;;7354175;32;20643;-59
2022/09/03 02:13:59;;;;;;;4.22;0.60;;;17.30;90.70;;;;;;7353050;32;20158;-59
2022/09/03 02:18:04;;;;;;;2.78;0.80;;;17.30;91.20;;;;;;7349877;32;20285;-59
2022/09/03 02:22:06;;;;;;;1.55;0.70;;;17.20;90.40;;;;;;7350141;32;20672;-59
2022/09/03 02:26:10;;;;;;;1.08;0.57;;;17.20;91.20;;;;;;7352039;32;20202;-59
2022/09/03 02:30:12;;;;;;;1.20;0.60;;;17.10;90.90;;;;;;7354238;32;20214;-59
2022/09/03 02:34:14;;;;;;;1.40;0.50;;;17.10;90.90;;;;;;7345279;32;20143;-58
2022/09/03 02:38:36;;;;;;;1.52;0.60;;;17.10;91.60;;;;;;7349893;32;20125;-59
2022/09/03 02:42:38;;;;;;;2.50;0.80;;;17.10;91.40;;;;;;7356893;32;20189;-59
2022/09/03 02:46:45;;;;;;;4.47;0.80;;;17.10;92.90;;;;;;7355084;32;20624;-59
2022/09/03 02:50:47;;;;;;;2.40;0.85;;;17.00;92.30;;;;;;7354100;32;20150;-59
2022/09/03 02:54:49;;;;;;;2.83;0.80;;;17.00;92.10;;;;;;7349751;32;20174;-59
2022/09/03 02:58:51;;;;;;;4.40;0.80;;;16.90;92.10;;;;;;7351756;32;20194;-59
2022/09/03 03:02:54;;;;;;;1.65;0.70;;;16.90;93.40;;;;;;7350901;32;20337;-60
2022/09/03 03:06:56;;;;;;;1.50;0.68;;;16.80;93.60;;;;;;7351299;32;20230;-59
2022/09/03 03:10:59;;;;;;;1.00;0.65;;;16.80;94.00;;;;;;7357802;32;20204;-59
2022/09/03 03:15:01;;;;;;;1.65;0.55;;;16.80;93.80;;;;;;7354582;32;20220;-59
2022/09/03 03:19:03;;;;;;;1.62;0.75;;;16.80;95.30;;;;;;7349672;32;20922;-60
2022/09/03 03:23:05;;;;;;;0.85;0.60;;;16.70;94.00;;;;;;7351413;32;20134;-59
2022/09/03 03:27:09;;;;;;;1.98;0.82;;;16.70;94.40;;;;;;7354440;32;20345;-59
2022/09/03 03:31:20;;;;;;;1.10;0.80;;;16.70;94.00;;;;;;7348852;32;20139;-58
2022/09/03 03:35:22;;;;;;;1.10;0.60;;;16.60;94.60;;;;;;7349464;32;20127;-59
2022/09/03 03:39:24;;;;;;;4.15;0.60;;;16.60;94.70;;;;;;7350523;32;20172;-58
2022/09/03 03:43:26;;;;;;;3.25;0.88;;;16.60;94.50;;;;;;7349600;32;20252;-59
2022/09/03 03:47:31;;;;;;;1.00;0.60;;;16.70;94.50;;;;;;7348831;32;20892;-59
2022/09/03 03:51:37;;;;;;;1.37;0.62;;;16.60;95.60;;;;;;7351215;32;20310;-59
2022/09/03 03:55:38;;;;;;;1.17;0.68;;;16.60;95.60;;;;;;7352114;32;20158;-59
2022/09/03 03:59:40;;;;;;;3.42;0.80;;;16.60;96.00;;;;;;7350182;32;20095;-59
2022/09/03 04:03:42;;;;;;;1.10;0.70;;;16.50;95.60;;;;;;7352094;32;20206;-59
2022/09/03 04:07:44;;;;;;;0.60;0.52;;;16.40;95.50;;;;;;7353980;32;20104;-59
2022/09/03 04:11:46;;;;;;;2.33;0.62;;;16.50;96.10;;;;;;7359062;32;20190;-59
2022/09/03 04:15:47;;;;;;;14.93;0.93;;;16.40;95.60;;;;;;7346495;32;20183;-59
2022/09/03 04:19:49;;;;;;;3.55;0.80;;;16.40;96.60;;;;;;7350401;32;20182;-59
2022/09/03 04:23:52;;;;;;;3.30;0.60;;;16.40;96.80;;;;;;7361307;32;20303;-59
2022/09/03 04:27:54;;;;;;;1.65;0.62;;;16.40;97.00;;;;;;7356317;32;20124;-60
2022/09/03 04:36:23;;;;;;;0.90;0.60;;;16.30;98.00;;;;;;7360050;32;20178;-59
2022/09/03 04:40:24;;;;;;;2.97;0.50;;;16.40;97.30;;;;;;7353814;32;20179;-59
2022/09/03 04:44:26;;;;;;;1.10;0.60;;;16.40;96.80;;;;;;7359856;32;20129;-59
2022/09/03 04:48:29;;;;;;;2.67;0.60;;;16.40;97.30;;;;;;7353077;32;20221;-59
2022/09/03 04:52:31;;;;;;;1.75;0.80;;;16.30;97.50;;;;;;7350343;32;20212;-59
2022/09/03 04:56:35;;;;;;;4.47;0.68;;;16.40;98.00;;;;;;7353576;32;20245;-59
2022/09/03 05:00:37;;;;;;;2.33;0.75;;;16.30;97.80;;;;;;7354098;32;20100;-59
2022/09/03 05:04:39;;;;;;;4.60;0.73;;;16.20;98.30;;;;;;7352515;32;20127;-59
2022/09/03 05:08:40;;;;;;;1.27;0.65;;;16.20;98.20;;;;;;7357017;32;20130;-59
2022/09/03 05:12:42;;;;;;;4.10;0.77;;;16.20;98.50;;;;;;7355552;32;20211;-60
2022/09/03 05:16:44;;;;;;;1.45;0.60;;;16.20;99.00;;;;;;7350476;32;20135;-60
2022/09/03 05:20:59;;;;;;;1.23;0.60;;;16.20;99.50;;;;;;7352654;32;20153;-60
2022/09/03 05:25:01;;;;;;;2.15;0.93;;;16.10;99.20;;;;;;7357499;32;20127;-59
2022/09/03 05:29:08;;;;;;;0.82;0.70;;;16.20;99.90;;;;;;7351485;32;20221;-60
2022/09/03 05:33:09;;;;;;;1.40;0.70;;;16.20;99.90;;;;;;7356673;32;20205;-66
2022/09/03 05:37:11;;;;;;;2.92;0.90;;;16.20;99.90;;;;;;7352660;32;20197;-67
2022/09/03 05:41:28;;;;;;;3.25;0.65;;;16.20;99.90;;;;;;7362782;32;20705;-67
2022/09/03 05:45:31;;;;;;;5.30;0.75;;;16.20;99.90;;;;;;7362628;32;20253;-67
2022/09/03 05:49:32;;;;;;;6.10;0.85;;;16.20;99.90;;;;;;7353521;32;20398;-68
2022/09/03 05:53:36;;;;;;;5.45;0.82;;;16.30;99.90;;;;;;7355435;32;20189;-68
2022/09/03 05:57:38;;;;;;;1.98;0.80;;;16.30;99.90;;;;;;7365748;32;20179;-69
2022/09/03 06:01:42;;;;;;;1.42;0.90;;;16.40;99.90;;;;;;7348596;32;20221;-68
2022/09/03 06:05:53;;;;;;;5.47;1.10;;;16.40;99.90;;;;;;7360618;32;20781;-58
2022/09/03 06:09:55;;;;;;;3.03;0.80;;;16.50;99.90;;;;;;7351025;32;20186;-58
2022/09/03 06:14:01;;;;;;;2.83;0.93;;;16.60;99.90;;;;;;7351805;32;20176;-58
2022/09/03 06:18:04;;;;;;;2.30;1.15;;;16.70;99.90;;;;;;7354910;32;20595;-58
2022/09/03 06:22:05;;;;;;;4.68;0.90;;;16.80;99.90;;;;;;7349502;32;20153;-58
2022/09/03 06:26:09;;;;;;;2.60;0.93;;;16.80;99.90;;;;;;7360245;32;20123;-58
2022/09/03 06:30:12;;;;;;;5.30;1.12;;;17.00;99.90;;;;;;7353207;32;20099;-57
2022/09/03 06:34:15;;;;;;;8.20;1.12;;;17.20;99.90;;;;;;7347060;32;20131;-57
2022/09/03 06:38:20;;;;;;;3.75;0.77;;;17.30;99.90;;;;;;7354082;32;20256;-58
2022/09/03 06:42:23;;;;;;;3.42;0.75;;;17.60;99.90;;;;;;7356593;32;20149;-57
2022/09/03 06:46:24;;;;;;;3.00;0.93;;;17.60;99.90;;;;;;7357113;32;20233;-58
2022/09/03 06:50:26;;;;;;;6.68;0.82;;;17.80;99.90;;;;;;7351036;32;20233;-58
2022/09/03 06:54:34;;;;;;;1.62;0.60;;;18.00;99.90;;;;;;7356270;32;20260;-68
2022/09/03 06:58:39;;;;;;;4.18;0.80;;;18.00;99.20;;;;;;7357927;32;20110;-67
2022/09/03 07:02:41;;;;;;;5.75;1.00;;;18.10;99.80;;;;;;7346863;32;20175;-67
2022/09/03 07:06:46;;;;;;;1.98;0.70;;;18.20;99.70;;;;;;7350098;32;20503;-66
2022/09/03 07:10:50;;;;;;;2.95;0.90;;;18.30;99.30;;;;;;7362112;32;20110;-65
2022/09/03 07:14:51;;;;;;;3.35;0.98;;;18.40;98.50;;;;;;7361045;32;20189;-64
2022/09/03 07:18:55;;;;;;;1.48;0.70;;;18.50;99.50;;;;;;7349511;32;20129;-65
2022/09/03 07:22:57;;;;;;;2.40;0.70;;;18.60;99.20;;;;;;7353672;32;20107;-65
2022/09/03 07:26:59;;;;;;;2.22;0.85;;;18.70;98.60;;;;;;7353727;32;20164;-55
2022/09/03 07:31:10;;;;;;;3.25;0.73;;;18.80;98.40;;;;;;7353339;32;20119;-55
2022/09/03 07:35:12;;;;;;;1.85;0.70;;;19.10;97.60;;;;;;7349180;32;20832;-56
2022/09/03 07:39:14;;;;;;;3.35;1.00;;;19.20;97.40;;;;;;7348910;32;20103;-56
2022/09/03 07:43:17;;;;;;;3.15;0.70;;;19.30;97.20;;;;;;7355725;32;20125;-55
2022/09/03 07:47:19;;;;;;;2.95;0.68;;;19.60;96.30;;;;;;7344431;32;20135;-57
2022/09/03 07:51:30;;;;;;;3.95;1.12;;;19.50;96.40;;;;;;7355826;32;20122;-55
2022/09/03 07:55:32;;;;;;;2.08;0.80;;;19.70;96.90;;;;;;7356320;32;20119;-56
2022/09/03 07:59:34;;;;;;;6.37;0.70;;;19.80;95.50;;;;;;7366945;32;20193;-56
2022/09/03 08:03:37;;;;;;;1.77;0.65;;;19.90;96.20;;;;;;7355062;32;21151;-55
2022/09/03 08:07:38;;;;;;;3.47;0.73;;;20.00;95.80;;;;;;7356148;32;20122;-56
2022/09/03 08:11:42;;;;;;;5.28;0.80;;;20.10;95.80;;;;;;7352853;32;20219;-56
2022/09/03 08:15:53;;;;;;;1.73;0.77;;;20.20;95.10;;;;;;7356002;32;20817;-56
2022/09/03 08:19:57;;;;;;;1.08;0.60;;;20.60;94.30;;;;;;7363736;32;20571;-56
2022/09/03 08:24:01;;;;;;;3.80;0.90;;;20.50;94.00;;;;;;7356777;32;20297;-56
2022/09/03 08:28:03;;;;;;;1.90;0.85;;;20.60;94.00;;;;;;7360504;32;20167;-56
2022/09/03 08:32:05;;;;;;;1.92;0.95;;;20.70;94.30;;;;;;7356518;32;20179;-55
2022/09/03 08:36:16;;;;;;;2.00;0.77;;;21.10;92.90;;;;;;7353467;32;20110;-55
2022/09/03 08:40:25;;;;;;;1.02;0.70;;;21.20;93.20;;;;;;7356084;32;20107;-58
2022/09/03 08:44:55;;;;;;;3.10;0.77;;;21.10;92.90;;;;;;7351063;32;20195;-64
2022/09/03 08:48:58;;;;;;;2.47;0.70;;;21.30;92.10;;;;;;7360581;32;20133;-64
2022/09/03 08:53:18;;;;;;;2.45;0.62;;;21.60;92.10;;;;;;7361396;32;20868;-64
2022/09/03 08:57:20;;;;;;;7.35;1.00;;;22.20;92.00;;;;;;7368007;32;20304;-64
2022/09/03 09:01:23;;;;;;;2.22;0.88;;;22.10;91.20;;;;;;7362152;32;20617;-64
2022/09/03 09:05:44;;;;;;;2.50;0.70;;;22.00;92.20;;;;;;7354101;32;20270;-64
2022/09/03 09:10:10;;;;;;;5.00;1.15;;;21.90;91.20;;;;;;7364566;32;20122;-65
2022/09/03 09:14:21;;;;;;;6.22;0.98;;;21.80;91.30;;;;;;7360066;32;20119;-63
2022/09/03 09:18:52;;;;;;;2.37;0.98;;;22.00;91.20;;;;;;7366752;32;20122;-63
2022/09/03 09:23:05;;;;;;;1.23;0.70;;;22.00;91.50;;;;;;7362530;32;20293;-63
2022/09/03 09:27:07;;;;;;;3.12;0.85;;;22.00;91.50;;;;;;7371066;32;20604;-63
2022/09/03 09:31:17;;;;;;;2.87;0.90;;;22.10;90.90;;;;;;7358911;32;20122;-64
2022/09/03 09:35:20;;;;;;;2.72;1.00;;;22.10;92.00;;;;;;7366926;32;20177;-64
2022/09/03 09:39:22;;;;;;;4.32;0.80;;;23.00;92.10;;;;;;7377878;32;20099;-64
2022/09/03 09:43:24;;;;;;;7.07;0.93;;;23.80;90.00;;;;;;7370646;32;20122;-64
2022/09/03 09:47:29;;;;;;;2.33;1.00;;;25.10;83.80;;;;;;7379630;31;20190;-64
2022/09/03 09:51:31;;;;;;;1.65;1.00;;;25.90;83.30;;;;;;7371263;32;20103;-64
2022/09/03 09:55:33;;;;;;;1.33;0.90;;;26.50;81.60;;;;;;7384360;32;20214;-65
2022/09/03 09:59:36;;;;;;;4.93;0.82;;;27.10;77.00;;;;;;7366974;32;21737;-65
2022/09/03 10:03:55;;;;;;;3.37;1.15;;;27.10;77.50;;;;;;7358628;32;20119;-58
2022/09/03 10:07:58;;;;;;;4.43;0.95;;;27.70;73.40;;;;;;7358373;32;20125;-57
2022/09/03 10:12:30;;;;;;;1.10;0.88;;;27.00;73.80;;;;;;7362486;32;20176;-57
2022/09/03 10:16:38;;;;;;;3.58;0.90;;;26.50;75.90;;;;;;7358963;32;20103;-57
2022/09/03 10:21:23;;;;;;;3.90;0.82;;;25.70;76.50;;;;;;7357913;32;20123;-57
2022/09/03 10:25:49;;;;;;;1.25;0.80;;;24.90;80.80;;;;;;7355488;32;20929;-58
2022/09/03 10:29:51;;;;;;;1.45;0.90;;;24.60;84.50;;;;;;7347749;32;20099;-57
2022/09/03 10:33:54;;;;;;;6.22;0.90;;;24.60;83.70;;;;;;7358758;32;20099;-57
2022/09/03 10:38:21;;;;;;;0.82;0.80;;;24.50;84.50;;;;;;7355289;32;20155;-57
2022/09/03 10:42:45;;;;;;;1.83;1.10;;;25.00;87.20;;;;;;7357943;32;20115;-57
2022/09/03 10:46:57;;;;;;;2.87;0.75;;;25.10;85.60;;;;;;7348191;32;20229;-57
2022/09/03 10:51:24;;;;;;;2.90;1.08;;;24.80;86.30;;;;;;7351384;32;20521;-57
2022/09/03 10:56:00;;;;;;;2.12;0.82;;;24.60;85.30;;;;;;7356818;32;20111;-57
2022/09/03 11:00:21;;;;;;;1.42;0.93;;;24.60;86.80;;;;;;7349502;32;20342;-57
2022/09/03 11:05:03;;;;;;;2.53;0.93;;;24.30;87.00;;;;;;7350977;32;20106;-57
2022/09/03 11:09:31;;;;;;;2.20;1.08;;;24.10;89.70;;;;;;7350175;32;20182;-57
2022/09/03 11:13:45;;;;;;;2.17;1.20;;;23.90;89.20;;;;;;7352043;32;20217;-63
2022/09/03 11:18:25;;;;;;;2.60;1.10;;;23.40;89.60;;;;;;7353014;32;20186;-65
2022/09/03 11:22:28;;;;;;;1.30;1.00;;;23.00;91.40;;;;;;7333710;32;20646;-65
2022/09/03 11:26:30;;;;;;;1.77;0.88;;;23.10;90.90;;;;;;7362969;32;20117;-63
2022/09/03 11:31:05;;;;;;;2.28;1.00;;;23.10;91.00;;;;;;7357399;32;20182;-65
2022/09/03 11:35:22;;;;;;;1.12;0.88;;;23.10;91.00;;;;;;7358897;32;20139;-64
2022/09/03 11:39:30;;;;;;;2.87;1.10;;;23.20;91.20;;;;;;7354054;32;20312;-65
2022/09/03 11:43:33;;;;;;;4.93;1.10;;;23.20;91.30;;;;;;7360147;32;20241;-65
2022/09/03 11:47:40;;;;;;;1.52;0.90;;;23.10;92.00;;;;;;7347723;32;20186;-64
2022/09/03 11:51:42;;;;;;;3.92;1.20;;;23.00;92.40;;;;;;7356205;32;20141;-64
2022/09/03 11:56:06;;;;;;;4.78;1.12;;;23.10;93.50;;;;;;7358066;32;20277;-64
2022/09/03 12:00:10;;;;;;;3.70;1.25;;;23.30;93.00;;;;;;7354976;32;20103;-57
2022/09/03 12:04:16;;;;;;;3.15;0.93;;;23.30;92.10;;;;;;7352427;32;20267;-57
2022/09/03 12:08:46;;;;;;;2.00;1.05;;;23.40;92.50;;;;;;7355293;32;20222;-57
2022/09/03 12:12:56;;;;;;;2.60;1.20;;;23.40;92.10;;;;;;7353598;32;20125;-57
2022/09/03 12:17:10;;;;;;;1.80;1.00;;;23.50;93.10;;;;;;7353960;32;20138;-57
2022/09/03 12:21:13;;;;;;;5.93;1.10;;;23.40;92.00;;;;;;7356463;32;20224;-57
2022/09/03 12:25:15;;;;;;;4.15;1.30;;;23.60;92.00;;;;;;7351552;32;20844;-57
2022/09/03 12:29:23;;;;;;;3.85;1.20;;;23.90;93.30;;;;;;7349674;32;20148;-58
2022/09/03 12:33:28;;;;;;;3.40;1.30;;;24.40;92.20;;;;;;7349506;32;20111;-57
2022/09/03 12:37:35;;;;;;;3.50;1.67;;;24.60;91.50;;;;;;7364675;32;20619;-57
2022/09/03 12:42:03;;;;;;;1.90;1.30;;;25.40;91.10;;;;;;7358863;32;20099;-57
2022/09/03 12:46:12;;;;;;;4.32;1.48;;;25.80;90.50;;;;;;7356484;32;20224;-58
2022/09/03 12:50:16;;;;;;;2.60;1.30;;;25.80;90.70;;;;;;7358670;32;20425;-57
2022/09/03 12:54:21;;;;;;;3.17;1.27;;;25.50;90.20;;;;;;7362585;32;20123;-57
2022/09/03 12:58:24;;;;;;;2.33;1.50;;;25.40;91.20;;;;;;7361095;32;20120;-57
2022/09/03 13:02:36;;;;;;;3.10;1.58;;;25.40;91.30;;;;;;7359561;32;20239;-56
2022/09/03 13:07:02;;;;;;;4.22;1.60;;;25.40;90.90;;;;;;7361624;32;20129;-56
2022/09/03 13:11:04;;;;;;;1.85;1.40;;;25.40;90.40;;;;;;7356617;32;20703;-57
2022/09/03 13:15:09;;;;;;;1.42;1.20;;;25.20;91.10;;;;;;7356619;32;20126;-56
2022/09/03 13:19:30;;;;;;;2.75;1.48;;;25.10;91.10;;;;;;7354981;32;20209;-57
2022/09/03 13:23:50;;;;;;;3.40;1.20;;;25.00;91.50;;;;;;7354978;32;20656;-57
2022/09/03 13:28:09;;;;;;;3.83;1.35;;;25.10;91.30;;;;;;7358061;32;20794;-57
2022/09/03 13:32:22;;;;;;;2.78;1.35;;;25.10;90.70;;;;;;7354929;32;20247;-56
2022/09/03 13:36:30;;;;;;;8.25;1.77;;;25.60;91.60;;;;;;7352983;32;20302;-57
2022/09/03 13:41:02;;;;;;;2.72;1.37;;;25.70;90.40;;;;;;7355511;32;20173;-57
2022/09/03 13:45:51;;;;;;;3.78;1.25;;;26.20;89.00;;;;;;7354530;32;20209;-57
2022/09/03 13:50:21;;;;;;;2.62;1.37;;;26.50;88.10;;;;;;7309057;32;20180;-57
2022/09/03 13:54:33;;;;;;;3.30;1.20;;;26.60;87.40;;;;;;7350942;32;20313;-58
2022/09/03 13:59:00;;;;;;;5.68;1.40;;;26.60;88.50;;;;;;7357455;32;20096;-58
2022/09/03 14:03:13;;;;;;;4.15;1.30;;;26.80;87.30;;;;;;7361272;32;20119;-66
2022/09/03 14:07:22;;;;;;;1.52;1.40;;;27.20;86.50;;;;;;7362198;32;20270;-64
2022/09/03 14:11:54;;;;;;;1.60;1.50;;;27.60;85.90;;;;;;7352553;32;20099;-65
2022/09/03 14:16:17;;;;;;;3.72;1.20;;;27.80;84.90;;;;;;7353654;32;20095;-66
2022/09/03 14:20:39;;;;;;;1.40;1.30;;;27.70;84.10;;;;;;7356922;32;20225;-66
2022/09/03 14:24:46;;;;;;;2.45;1.20;;;27.60;84.00;;;;;;7352505;32;20833;-65
2022/09/03 14:28:58;;;;;;;1.55;1.40;;;27.60;83.90;;;;;;7353291;32;20164;-66
2022/09/03 14:33:22;;;;;;;3.35;1.30;;;27.10;85.30;;;;;;7352978;32;20099;-57
2022/09/03 14:37:33;;;;;;;2.05;1.40;;;26.50;85.50;;;;;;7349971;32;20428;-56
2022/09/03 14:42:05;;;;;;;4.43;1.50;;;26.40;86.00;;;;;;7358836;32;20341;-56
2022/09/03 14:46:10;;;;;;;2.10;1.20;;;26.40;87.60;;;;;;7353257;32;20178;-57
2022/09/03 14:50:42;;;;;;;1.80;1.50;;;26.60;85.20;;;;;;7355677;32;20226;-57
2022/09/03 14:54:50;;;;;;;6.80;1.60;;;26.70;86.20;;;;;;7341212;32;20306;-57
2022/09/03 14:59:07;;;;;;;2.28;1.08;;;26.40;86.20;;;;;;7356255;32;20099;-57
2022/09/03 15:03:26;;;;;;;3.47;1.35;;;26.10;88.00;;;;;;7350520;32;20590;-57
2022/09/03 15:07:52;;;;;;;2.42;1.30;;;25.90;89.20;;;;;;7354840;32;20206;-55
2022/09/03 15:12:12;;;;;;;3.35;1.40;;;25.80;89.20;;;;;;7352501;32;20507;-56
2022/09/03 15:16:38;;;;;;;3.45;1.27;;;25.50;89.40;;;;;;7351856;32;20103;-57
2022/09/03 15:20:53;;;;;;;1.95;1.27;;;25.50;90.60;;;;;;7352667;32;20107;-56
2022/09/03 15:25:26;;;;;;;2.53;1.30;;;25.80;88.80;;;;;;7350864;32;20263;-58
2022/09/03 15:29:34;;;;;;;2.87;1.20;;;25.70;88.40;;;;;;7352882;32;20190;-57
2022/09/03 15:33:57;;;;;;;5.07;1.42;;;25.60;88.50;;;;;;7350570;32;20131;-57
2022/09/03 15:38:18;;;;;;;2.33;1.20;;;25.60;88.40;;;;;;7357100;32;20110;-57
2022/09/03 15:42:26;;;;;;;2.40;1.55;;;25.50;89.00;;;;;;7351784;32;20742;-57
2022/09/03 15:46:45;;;;;;;2.12;1.50;;;25.40;89.60;;;;;;7357499;32;20115;-56
2022/09/03 15:51:08;;;;;;;4.03;1.42;;;25.30;90.00;;;;;;7357171;32;20268;-57
2022/09/03 15:55:22;;;;;;;1.77;1.65;;;24.90;90.50;;;;;;7354512;32;20587;-57
2022/09/03 15:59:41;;;;;;;3.35;1.37;;;25.10;90.10;;;;;;7350466;32;20229;-57
2022/09/03 16:03:48;;;;;;;5.55;1.40;;;25.20;90.60;;;;;;7352069;32;20696;-59
2022/09/03 16:08:33;;;;;;;2.00;1.30;;;25.40;90.40;;;;;;7348263;32;20129;-57
2022/09/03 16:12:44;;;;;;;3.55;1.40;;;25.40;90.30;;;;;;7351566;32;21557;-57
2022/09/03 16:17:08;;;;;;;2.80;1.65;;;25.50;90.50;;;;;;7352782;32;20323;-57
2022/09/03 16:21:19;;;;;;;2.90;1.33;;;25.40;90.30;;;;;;7354253;32;20249;-57
2022/09/03 16:25:28;;;;;;;5.20;1.87;;;25.50;90.20;;;;;;7355455;32;21684;-57
2022/09/03 16:29:31;;;;;;;3.87;1.45;;;25.40;90.40;;;;;;7351720;32;20146;-56
2022/09/03 16:34:04;;;;;;;1.65;1.20;;;25.30;90.60;;;;;;7355934;32;20273;-57
2022/09/03 16:38:54;;;;;;;1.55;1.10;;;25.20;90.60;;;;;;7354028;32;20444;-56
2022/09/03 16:43:23;;;;;;;1.95;1.17;;;24.90;91.30;;;;;;7316953;32;20193;-57
2022/09/03 16:47:59;;;;;;;5.10;1.40;;;24.60;92.10;;;;;;7357147;32;20232;-56
2022/09/03 16:52:04;;;;;;;2.70;1.30;;;24.40;93.50;;;;;;7354088;32;20111;-56
2022/09/03 16:56:40;;;;;;;1.75;1.50;;;24.30;94.30;;;;;;7362587;32;20259;-56
2022/09/03 17:00:53;;;;;;;3.25;1.60;;;24.10;94.80;;;;;;7352451;32;20224;-56
2022/09/03 17:05:40;;;;;;;3.42;1.62;;;24.10;95.20;;;;;;7360769;32;20228;-56
2022/09/03 17:09:57;;;;;;;5.05;1.60;;;24.10;95.70;;;;;;7342091;32;20214;-56
2022/09/03 17:14:33;;;;;;;5.70;1.58;;;24.00;95.70;;;;;;7354329;32;20147;-56
2022/09/03 17:18:45;;;;;;;5.57;1.83;;;24.00;96.40;;;;;;7351163;32;20107;-56
2022/09/03 17:23:13;;;;;;;2.20;1.62;;;24.00;97.50;;;;;;7366478;32;20213;-56
2022/09/03 17:27:30;;;;;;;3.72;1.77;;;23.90;99.50;;;;;;7339231;32;20294;-57
2022/09/03 17:31:50;;;;;;;;;;;23.70;99.40;;;;;;7358681;32;20214;-57
2022/09/03 17:36:05;;;;;;;7.32;1.75;;;23.60;99.90;;;;;;7357246;32;20375;-57
2022/09/03 17:40:20;;;;;;;2.37;1.52;;;23.40;99.90;;;;;;7353579;32;20115;-57
2022/09/03 17:44:39;;;;;;;4.65;1.80;;;23.00;99.90;;;;;;7362764;32;20216;-56
2022/09/03 17:48:57;;;;;;;2.45;1.50;;;22.60;99.90;;;;;;7355154;32;20289;-63
2022/09/03 17:53:08;;;;;;;2.50;1.48;;;22.50;99.90;;;;;;7358771;32;20159;-68
2022/09/03 17:57:15;;;;;;;2.78;1.50;;;22.40;99.90;;;;;;7364210;32;20107;-67
2022/09/03 18:01:30;;;;;;;3.55;1.40;;;22.40;99.90;;;;;;7359444;32;22060;-68
2022/09/03 18:05:40;;;;;;;2.05;1.45;;;22.30;99.90;;;;;;7359994;32;20131;-67
2022/09/03 18:09:53;;;;;;;1.92;1.50;;;22.30;99.90;;;;;;7342287;32;20489;-65
2022/09/03 18:14:13;;;;;;;4.03;1.67;;;22.20;99.90;;;;;;7365515;32;20882;-62
2022/09/03 18:18:35;;;;;;;2.67;2.17;;;22.10;99.90;;;;;;7355276;32;20286;-61
2022/09/03 20:12:29;;;;;;;4.60;2.45;;;18.80;99.90;;;;;;7362483;32;20125;-61
2022/09/03 20:17:08;;;;;;;3.95;2.33;;;18.70;99.90;;;;;;7356525;32;20233;-61
2022/09/03 20:21:25;;;;;;;3.80;1.77;;;18.70;99.90;;;;;;7358391;32;20194;-62
2022/09/03 20:25:45;;;;;;;5.22;2.30;;;18.60;99.90;;;;;;7354697;32;20553;-59
2022/09/03 20:30:11;;;;;;;3.20;1.90;;;18.50;99.90;;;;;;7357323;32;20262;-60
2022/09/03 20:34:35;;;;;;;2.45;2.03;;;18.40;99.90;;;;;;7357714;32;20110;-64
2022/09/03 20:39:07;;;;;;;5.03;2.00;;;18.30;99.90;;;;;;7356441;32;20289;-63
2022/09/03 20:43:23;;;;;;;1.90;1.70;;;18.30;99.90;;;;;;7357222;32;20138;-62
2022/09/03 20:47:40;;;;;;;4.03;2.30;;;18.30;99.90;;;;;;7350980;32;20439;-62
2022/09/03 20:52:05;;;;;;;4.37;2.00;;;18.20;99.90;;;;;;7358951;32;20103;-61
2022/09/03 20:56:15;;;;;;;3.03;2.00;;;18.20;99.90;;;;;;7354252;32;21016;-63
2022/09/03 21:00:19;;;;;;;2.80;1.90;;;18.20;99.90;;;;;;7357516;32;20249;-65
2022/09/03 21:04:43;;;;;;;3.60;2.15;;;18.10;99.90;;;;;;7355808;32;20264;-62
2022/09/03 21:09:23;;;;;;;2.47;1.48;;;18.20;99.90;;;;;;7348287;32;20115;-62
2022/09/03 21:13:37;;;;;;;2.47;1.60;;;18.10;99.90;;;;;;7352879;32;20123;-61
2022/09/03 21:18:12;;;;;;;2.40;1.48;;;18.10;99.90;;;;;;7350384;32;20178;-61
2022/09/03 21:22:22;;;;;;;2.03;1.70;;;18.00;99.90;;;;;;7357329;32;20281;-62
2022/09/03 21:26:28;;;;;;;2.37;1.80;;;17.90;99.90;;;;;;7353270;32;20180;-62
2022/09/03 21:30:36;;;;;;;2.30;1.65;;;17.90;99.90;;;;;;7352755;32;20139;-61
2022/09/03 21:34:42;;;;;;;1.90;1.62;;;17.90;99.90;;;;;;7360104;32;20119;-62
2022/09/03 21:38:49;;;;;;;3.40;1.83;;;17.80;99.90;;;;;;7350621;32;20289;-60
2022/09/03 21:43:14;;;;;;;3.70;1.83;;;17.80;99.90;;;;;;7354697;32;20202;-60
2022/09/03 21:47:17;;;;;;;3.70;1.80;;;17.80;99.90;;;;;;7357235;32;20133;-60
2022/09/03 21:51:22;;;;;;;2.87;1.77;;;17.70;99.90;;;;;;7353871;32;20178;-60
2022/09/03 21:55:48;;;;;;;4.00;2.00;;;17.70;99.90;;;;;;7358260;32;20187;-59
2022/09/03 21:59:53;;;;;;;2.20;2.00;;;17.70;99.90;;;;;;7360859;32;20647;-59
2022/09/03 22:03:54;;;;;;;4.82;2.30;;;17.70;99.90;;;;;;7358793;32;20198;-60
2022/09/03 22:07:59;;;;;;;2.35;1.85;;;17.70;99.90;;;;;;7351709;32;20129;-60
2022/09/03 22:12:29;;;;;;;5.10;2.75;;;17.60;99.90;;;;;;7357123;32;20453;-58
2022/09/03 22:16:37;;;;;;;4.00;2.65;;;17.60;99.90;;;;;;7356887;32;20183;-58
2022/09/03 22:20:44;;;;;;;2.58;2.08;;;17.60;99.90;;;;;;7352921;32;20466;-59
2022/09/03 22:25:03;;;;;;;2.92;1.85;;;17.50;99.90;;;;;;7358822;32;20135;-59
2022/09/03 22:29:12;;;;;;;2.45;1.92;;;17.50;99.90;;;;;;7350003;32;20558;-59
2022/09/03 22:33:27;;;;;;;2.30;2.03;;;17.40;99.90;;;;;;7351372;32;20220;-59
2022/09/03 22:37:43;;;;;;;6.80;2.40;;;17.30;99.90;;;;;;7354659;32;20104;-60
2022/09/03 22:42:05;;;;;;;2.78;2.10;;;17.20;99.90;;;;;;7352811;32;20130;-60
2022/09/03 22:46:16;;;;;;;3.42;2.25;;;17.20;99.90;;;;;;7348333;32;20119;-60
2022/09/03 22:50:32;;;;;;;3.40;2.20;;;17.00;99.90;;;;;;7352839;32;20781;-59
2022/09/03 22:55:12;;;;;;;2.78;2.28;;;16.80;99.90;;;;;;7353112;32;20527;-60
2022/09/03 22:59:35;;;;;;;2.97;2.08;;;16.60;99.90;;;;;;7359297;32;20174;-59
2022/09/03 23:03:42;;;;;;;3.30;2.15;;;16.50;99.90;;;;;;7356425;32;20819;-58
2022/09/03 23:08:08;;;;;;;3.50;2.33;;;16.40;99.90;;;;;;7354128;32;20108;-59
2022/09/03 23:12:17;;;;;;;4.37;2.28;;;16.30;99.90;;;;;;7349647;32;20180;-59
2022/09/03 23:16:38;;;;;;;4.00;2.70;;;16.30;99.90;;;;;;7351453;32;20269;-59
2022/09/03 23:20:49;;;;;;;3.83;2.37;;;16.20;99.90;;;;;;7359951;32;20139;-59
2022/09/03 23:25:02;;;;;;;4.97;2.42;;;16.20;99.90;;;;;;7351362;32;20187;-59
2022/09/03 23:29:24;;;;;;;4.35;2.08;;;16.10;99.90;;;;;;7355417;32;20590;-59
2022/09/03 23:33:27;;;;;;;2.70;2.50;;;16.10;99.90;;;;;;7361250;32;20844;-59
2022/09/03 23:37:48;;;;;;;4.87;2.53;;;16.10;99.90;;;;;;7355038;32;20130;-58
2022/09/03 23:42:01;;;;;;;2.85;2.22;;;16.20;99.90;;;;;;7350921;32;20251;-59
2022/09/03 23:46:15;;;;;;;2.90;2.50;;;16.10;99.90;;;;;;7352477;32;20111;-59
2022/09/03 23:50:43;;;;;;;4.50;2.80;;;16.10;99.90;;;;;;7354469;32;20595;-60